sensor_id;sensor_type;location;lat;lon;timestamp;pressure;altitude;pressure_sealevel;temperature;humidity
76424;BME280;65257;52.104;4.268;2023-04-06T00:00:07;101731.94;;;7.42;100.00
76424;BME280;65257;52.104;4.268;2023-04-06T00:02:34;101727.91;;;7.45;100.00
76424;BME280;65257;52.104;4.268;2023-04-06T00:05:01;101722.72;;;7.44;100.00
76424;BME280;65257;52.104;4.268;2023-04-06T00:07:27;101722.44;;;7.39;100.00
76424;BME280;65257;52.104;4.268;2023-04-06T00:09:57;101723.50;;;7.43;100.00
76424;BME280;65257;52.104;4.268;2023-04-06T00:12:26;101724.09;;;7.39;100.00
76424;BME280;65257;52.104;4.268;2023-04-06T00:14:57;101715.59;;;7.38;100.00
76424;BME280;65257;52.104;4.268;2023-04-06T00:17:24;101711.38;;;7.39;100.00
76424;BME280;65257;52.104;4.268;2023-04-06T00:19:49;101714.50;;;7.35;100.00
76424;BME280;65257;52.104;4.268;2023-04-06T00:22:21;101708.72;;;7.37;100.00
76424;BME280;65257;52.104;4.268;2023-04-06T00:24:47;101701.88;;;7.36;100.00
76424;BME280;65257;52.104;4.268;2023-04-06T00:27:17;101701.00;;;7.36;100.00
76424;BME280;65257;52.104;4.268;2023-04-06T00:29:43;101693.94;;;7.32;100.00
76424;BME280;65257;52.104;4.268;2023-04-06T00:32:09;101684.56;;;7.31;100.00
76424;BME280;65257;52.104;4.268;2023-04-06T00:34:34;101683.59;;;7.29;100.00
76424;BME280;65257;52.104;4.268;2023-04-06T00:37:00;101685.34;;;7.30;100.00
76424;BME280;65257;52.104;4.268;2023-04-06T00:39:35;101680.44;;;7.33;100.00
76424;BME280;65257;52.104;4.268;2023-04-06T00:42:13;101673.78;;;7.35;100.00
76424;BME280;65257;52.104;4.268;2023-04-06T00:44:42;101668.88;;;7.38;100.00
76424;BME280;65257;52.104;4.268;2023-04-06T00:47:11;101660.47;;;7.39;100.00
76424;BME280;65257;52.104;4.268;2023-04-06T00:49:37;101662.13;;;7.38;100.00
76424;BME280;65257;52.104;4.268;2023-04-06T00:52:05;101659.50;;;7.37;100.00
76424;BME280;65257;52.104;4.268;2023-04-06T00:54:31;101656.16;;;7.38;100.00
76424;BME280;65257;52.104;4.268;2023-04-06T00:56:59;101655.28;;;7.37;100.00
76424;BME280;65257;52.104;4.268;2023-04-06T00:59:28;101653.59;;;7.38;100.00
76424;BME280;65257;52.104;4.268;2023-04-06T01:01:58;101656.97;;;7.37;100.00
76424;BME280;65257;52.104;4.268;2023-04-06T01:04:23;101653.81;;;7.41;100.00
76424;BME280;65257;52.104;4.268;2023-04-06T01:06:49;101645.38;;;7.42;100.00
76424;BME280;65257;52.104;4.268;2023-04-06T01:09:16;101650.47;;;7.42;100.00
76424;BME280;65257;52.104;4.268;2023-04-06T01:11:41;101642.22;;;7.46;100.00
76424;BME280;65257;52.104;4.268;2023-04-06T01:14:15;101637.91;;;7.45;100.00
76424;BME280;65257;52.104;4.268;2023-04-06T01:16:41;101638.03;;;7.46;100.00
76424;BME280;65257;52.104;4.268;2023-04-06T01:19:08;101627.03;;;7.47;100.00
76424;BME280;65257;52.104;4.268;2023-04-06T01:21:39;101633.97;;;7.50;100.00
76424;BME280;65257;52.104;4.268;2023-04-06T01:24:13;101625.38;;;7.48;100.00
76424;BME280;65257;52.104;4.268;2023-04-06T01:26:40;101616.16;;;7.50;100.00
76424;BME280;65257;52.104;4.268;2023-04-06T01:29:08;101613.59;;;7.50;100.00
76424;BME280;65257;52.104;4.268;2023-04-06T01:31:34;101609.50;;;7.52;100.00
76424;BME280;65257;52.104;4.268;2023-04-06T01:34:02;101613.91;;;7.54;100.00
76424;BME280;65257;52.104;4.268;2023-04-06T01:36:34;101603.78;;;7.56;100.00
76424;BME280;65257;52.104;4.268;2023-04-06T01:39:00;101604.88;;;7.60;100.00
76424;BME280;65257;52.104;4.268;2023-04-06T01:41:26;101598.88;;;7.59;100.00
76424;BME280;65257;52.104;4.268;2023-04-06T01:43:51;101588.31;;;7.53;100.00
76424;BME280;65257;52.104;4.268;2023-04-06T01:46:20;101596.16;;;7.56;100.00
76424;BME280;65257;52.104;4.268;2023-04-06T01:48:46;101599.59;;;7.56;100.00
76424;BME280;65257;52.104;4.268;2023-04-06T01:51:11;101592.84;;;7.57;100.00
76424;BME280;65257;52.104;4.268;2023-04-06T01:53:36;101588.69;;;7.59;100.00
76424;BME280;65257;52.104;4.268;2023-04-06T01:56:02;101590.44;;;7.60;100.00
76424;BME280;65257;52.104;4.268;2023-04-06T01:58:29;101586.94;;;7.58;100.00
76424;BME280;65257;52.104;4.268;2023-04-06T02:00:55;101585.97;;;7.56;100.00
76424;BME280;65257;52.104;4.268;2023-04-06T02:03:24;101581.84;;;7.58;100.00
76424;BME280;65257;52.104;4.268;2023-04-06T02:05:55;101576.94;;;7.61;100.00
76424;BME280;65257;52.104;4.268;2023-04-06T02:08:20;101571.47;;;7.55;100.00
76424;BME280;65257;52.104;4.268;2023-04-06T02:10:52;101581.66;;;7.55;100.00
76424;BME280;65257;52.104;4.268;2023-04-06T02:13:18;101573.06;;;7.53;100.00
76424;BME280;65257;52.104;4.268;2023-04-06T02:16:05;101569.34;;;7.48;100.00
76424;BME280;65257;52.104;4.268;2023-04-06T02:18:31;101576.22;;;7.49;100.00
76424;BME280;65257;52.104;4.268;2023-04-06T02:20:59;101571.31;;;7.52;100.00
76424;BME280;65257;52.104;4.268;2023-04-06T02:23:28;101555.16;;;7.51;100.00
76424;BME280;65257;52.104;4.268;2023-04-06T02:25:57;101555.03;;;7.50;100.00
76424;BME280;65257;52.104;4.268;2023-04-06T02:28:22;101558.59;;;7.52;100.00
76424;BME280;65257;52.104;4.268;2023-04-06T02:30:47;101540.56;;;7.49;100.00
76424;BME280;65257;52.104;4.268;2023-04-06T02:33:16;101547.25;;;7.47;100.00
76424;BME280;65257;52.104;4.268;2023-04-06T02:35:41;101554.47;;;7.54;100.00
76424;BME280;65257;52.104;4.268;2023-04-06T02:38:07;101549.38;;;7.54;100.00
76424;BME280;65257;52.104;4.268;2023-04-06T02:40:32;101542.50;;;7.53;100.00
76424;BME280;65257;52.104;4.268;2023-04-06T02:43:04;101542.69;;;7.56;100.00
76424;BME280;65257;52.104;4.268;2023-04-06T02:45:29;101541.09;;;7.58;100.00
76424;BME280;65257;52.104;4.268;2023-04-06T02:47:55;101540.13;;;7.56;100.00
76424;BME280;65257;52.104;4.268;2023-04-06T02:50:26;101541.97;;;7.58;100.00
76424;BME280;65257;52.104;4.268;2023-04-06T02:52:52;101530.91;;;7.58;100.00
76424;BME280;65257;52.104;4.268;2023-04-06T02:55:27;101531.28;;;7.64;100.00
76424;BME280;65257;52.104;4.268;2023-04-06T02:57:52;101536.38;;;7.64;100.00
76424;BME280;65257;52.104;4.268;2023-04-06T03:00:24;101527.97;;;7.65;100.00
76424;BME280;65257;52.104;4.268;2023-04-06T03:02:58;101531.28;;;7.64;100.00
76424;BME280;65257;52.104;4.268;2023-04-06T03:05:26;101529.50;;;7.63;100.00
76424;BME280;65257;52.104;4.268;2023-04-06T03:07:53;101519.00;;;7.57;100.00
76424;BME280;65257;52.104;4.268;2023-04-06T03:10:19;101518.81;;;7.54;100.00
76424;BME280;65257;52.104;4.268;2023-04-06T03:12:44;101521.78;;;7.62;100.00
76424;BME280;65257;52.104;4.268;2023-04-06T03:15:10;101524.22;;;7.60;100.00
76424;BME280;65257;52.104;4.268;2023-04-06T03:17:36;101519.50;;;7.66;100.00
76424;BME280;65257;52.104;4.268;2023-04-06T03:20:02;101517.78;;;7.65;100.00
76424;BME280;65257;52.104;4.268;2023-04-06T03:22:30;101512.81;;;7.68;100.00
76424;BME280;65257;52.104;4.268;2023-04-06T03:24:59;101514.03;;;7.60;100.00
76424;BME280;65257;52.104;4.268;2023-04-06T03:27:26;101523.00;;;7.68;100.00
76424;BME280;65257;52.104;4.268;2023-04-06T03:29:52;101511.78;;;7.65;100.00
76424;BME280;65257;52.104;4.268;2023-04-06T03:32:26;101505.81;;;7.64;100.00
76424;BME280;65257;52.104;4.268;2023-04-06T03:34:51;101503.28;;;7.64;100.00
76424;BME280;65257;52.104;4.268;2023-04-06T03:37:17;101502.13;;;7.59;100.00
76424;BME280;65257;52.104;4.268;2023-04-06T03:39:42;101500.53;;;7.61;100.00
76424;BME280;65257;52.104;4.268;2023-04-06T03:42:07;101501.31;;;7.60;100.00
76424;BME280;65257;52.104;4.268;2023-04-06T03:44:34;101494.94;;;7.52;100.00
76424;BME280;65257;52.104;4.268;2023-04-06T03:47:00;101497.56;;;7.53;100.00
76424;BME280;65257;52.104;4.268;2023-04-06T03:49:26;101499.22;;;7.53;100.00
76424;BME280;65257;52.104;4.268;2023-04-06T03:51:52;101500.03;;;7.52;100.00
76424;BME280;65257;52.104;4.268;2023-04-06T03:54:18;101501.25;;;7.44;100.00
76424;BME280;65257;52.104;4.268;2023-04-06T03:56:46;101494.56;;;7.46;100.00
76424;BME280;65257;52.104;4.268;2023-04-06T03:59:14;101497.19;;;7.47;100.00
76424;BME280;65257;52.104;4.268;2023-04-06T04:01:40;101498.06;;;7.48;100.00
76424;BME280;65257;52.104;4.268;2023-04-06T04:04:13;101496.34;;;7.47;100.00
76424;BME280;65257;52.104;4.268;2023-04-06T04:06:38;101502.22;;;7.46;100.00
76424;BME280;65257;52.104;4.268;2023-04-06T04:09:10;101498.69;;;7.44;100.00
76424;BME280;65257;52.104;4.268;2023-04-06T04:11:38;101502.84;;;7.42;100.00
76424;BME280;65257;52.104;4.268;2023-04-06T04:14:04;101492.47;;;7.39;100.00
76424;BME280;65257;52.104;4.268;2023-04-06T04:16:30;101497.13;;;7.31;100.00
76424;BME280;65257;52.104;4.268;2023-04-06T04:19:01;101487.91;;;7.33;100.00
76424;BME280;65257;52.104;4.268;2023-04-06T04:21:29;101487.56;;;7.42;100.00
76424;BME280;65257;52.104;4.268;2023-04-06T04:23:58;101499.41;;;7.41;100.00
76424;BME280;65257;52.104;4.268;2023-04-06T04:26:24;101492.66;;;7.42;100.00
76424;BME280;65257;52.104;4.268;2023-04-06T04:28:49;101493.16;;;7.36;100.00
76424;BME280;65257;52.104;4.268;2023-04-06T04:31:16;101499.16;;;7.37;100.00
76424;BME280;65257;52.104;4.268;2023-04-06T04:33:47;101488.97;;;7.37;100.00
76424;BME280;65257;52.104;4.268;2023-04-06T04:36:14;101491.50;;;7.37;100.00
76424;BME280;65257;52.104;4.268;2023-04-06T04:38:42;101488.78;;;7.34;100.00
76424;BME280;65257;52.104;4.268;2023-04-06T04:41:09;101493.94;;;7.35;100.00
76424;BME280;65257;52.104;4.268;2023-04-06T04:43:36;101498.97;;;7.34;100.00
76424;BME280;65257;52.104;4.268;2023-04-06T04:46:02;101499.47;;;7.43;100.00
76424;BME280;65257;52.104;4.268;2023-04-06T04:48:29;101496.16;;;7.44;100.00
76424;BME280;65257;52.104;4.268;2023-04-06T04:50:55;101493.34;;;7.39;100.00
76424;BME280;65257;52.104;4.268;2023-04-06T04:53:20;101492.28;;;7.36;100.00
76424;BME280;65257;52.104;4.268;2023-04-06T04:55:47;101488.25;;;7.39;100.00
76424;BME280;65257;52.104;4.268;2023-04-06T04:58:19;101486.94;;;7.46;100.00
76424;BME280;65257;52.104;4.268;2023-04-06T05:00:45;101492.38;;;7.52;100.00
76424;BME280;65257;52.104;4.268;2023-04-06T05:03:21;101492.97;;;7.48;100.00
76424;BME280;65257;52.104;4.268;2023-04-06T05:05:53;101492.28;;;7.50;100.00
76424;BME280;65257;52.104;4.268;2023-04-06T05:08:22;101488.59;;;7.45;100.00
76424;BME280;65257;52.104;4.268;2023-04-06T05:10:48;101491.59;;;7.53;100.00
76424;BME280;65257;52.104;4.268;2023-04-06T05:13:17;101486.66;;;7.56;100.00
76424;BME280;65257;52.104;4.268;2023-04-06T05:15:44;101495.25;;;7.58;100.00
76424;BME280;65257;52.104;4.268;2023-04-06T05:18:12;101487.63;;;7.58;100.00
76424;BME280;65257;52.104;4.268;2023-04-06T05:20:38;101484.47;;;7.62;100.00
76424;BME280;65257;52.104;4.268;2023-04-06T05:23:03;101482.25;;;7.68;100.00
76424;BME280;65257;52.104;4.268;2023-04-06T05:25:29;101482.44;;;7.71;100.00
76424;BME280;65257;52.104;4.268;2023-04-06T05:27:55;101480.00;;;7.73;100.00
76424;BME280;65257;52.104;4.268;2023-04-06T05:30:21;101479.28;;;7.75;100.00
76424;BME280;65257;52.104;4.268;2023-04-06T05:32:47;101481.38;;;7.82;100.00
76424;BME280;65257;52.104;4.268;2023-04-06T05:35:15;101479.53;;;7.80;100.00
76424;BME280;65257;52.104;4.268;2023-04-06T05:37:42;101482.53;;;7.87;100.00
76424;BME280;65257;52.104;4.268;2023-04-06T05:40:13;101474.34;;;7.78;100.00
76424;BME280;65257;52.104;4.268;2023-04-06T05:42:40;101477.72;;;7.77;100.00
76424;BME280;65257;52.104;4.268;2023-04-06T05:45:09;101471.19;;;7.82;100.00
76424;BME280;65257;52.104;4.268;2023-04-06T05:47:46;101467.00;;;7.83;100.00
76424;BME280;65257;52.104;4.268;2023-04-06T05:50:14;101457.41;;;7.79;100.00
76424;BME280;65257;52.104;4.268;2023-04-06T05:52:46;101466.28;;;7.85;100.00
76424;BME280;65257;52.104;4.268;2023-04-06T05:55:16;101462.91;;;7.86;100.00
76424;BME280;65257;52.104;4.268;2023-04-06T05:57:42;101466.59;;;7.91;100.00
76424;BME280;65257;52.104;4.268;2023-04-06T06:00:08;101472.50;;;7.90;100.00
76424;BME280;65257;52.104;4.268;2023-04-06T06:02:39;101473.81;;;7.98;100.00
76424;BME280;65257;52.104;4.268;2023-04-06T06:05:10;101464.88;;;7.90;100.00
76424;BME280;65257;52.104;4.268;2023-04-06T06:07:38;101471.34;;;8.00;100.00
76424;BME280;65257;52.104;4.268;2023-04-06T06:10:04;101460.50;;;8.04;100.00
76424;BME280;65257;52.104;4.268;2023-04-06T06:12:33;101465.53;;;8.02;100.00
76424;BME280;65257;52.104;4.268;2023-04-06T06:14:59;101464.13;;;8.07;100.00
76424;BME280;65257;52.104;4.268;2023-04-06T06:17:28;101460.59;;;8.05;100.00
76424;BME280;65257;52.104;4.268;2023-04-06T06:19:54;101471.34;;;8.00;100.00
76424;BME280;65257;52.104;4.268;2023-04-06T06:22:19;101463.94;;;8.04;100.00
76424;BME280;65257;52.104;4.268;2023-04-06T06:24:49;101469.22;;;8.07;100.00
76424;BME280;65257;52.104;4.268;2023-04-06T06:27:18;101462.69;;;8.12;100.00
76424;BME280;65257;52.104;4.268;2023-04-06T06:29:44;101463.66;;;8.14;100.00
76424;BME280;65257;52.104;4.268;2023-04-06T06:32:10;101471.00;;;8.25;100.00
76424;BME280;65257;52.104;4.268;2023-04-06T06:34:35;101463.03;;;8.18;100.00
76424;BME280;65257;52.104;4.268;2023-04-06T06:37:01;101466.72;;;8.24;100.00
76424;BME280;65257;52.104;4.268;2023-04-06T06:39:31;101464.94;;;8.23;100.00
76424;BME280;65257;52.104;4.268;2023-04-06T06:42:00;101479.28;;;8.20;100.00
76424;BME280;65257;52.104;4.268;2023-04-06T06:44:27;101465.13;;;8.26;100.00
76424;BME280;65257;52.104;4.268;2023-04-06T06:46:53;101466.91;;;8.27;100.00
76424;BME280;65257;52.104;4.268;2023-04-06T06:49:19;101460.69;;;8.38;100.00
76424;BME280;65257;52.104;4.268;2023-04-06T06:51:45;101461.63;;;8.24;100.00
76424;BME280;65257;52.104;4.268;2023-04-06T06:54:12;101453.16;;;8.39;100.00
76424;BME280;65257;52.104;4.268;2023-04-06T06:56:40;101453.72;;;8.50;100.00
76424;BME280;65257;52.104;4.268;2023-04-06T06:59:09;101450.84;;;8.44;100.00
76424;BME280;65257;52.104;4.268;2023-04-06T07:01:34;101450.66;;;8.41;100.00
76424;BME280;65257;52.104;4.268;2023-04-06T07:04:10;101455.94;;;8.44;100.00
76424;BME280;65257;52.104;4.268;2023-04-06T07:06:35;101456.09;;;8.47;100.00
76424;BME280;65257;52.104;4.268;2023-04-06T07:09:04;101453.25;;;8.57;100.00
76424;BME280;65257;52.104;4.268;2023-04-06T07:11:48;101447.25;;;8.56;100.00
76424;BME280;65257;52.104;4.268;2023-04-06T07:14:15;101439.53;;;8.55;100.00
76424;BME280;65257;52.104;4.268;2023-04-06T07:16:41;101433.78;;;8.59;100.00
76424;BME280;65257;52.104;4.268;2023-04-06T07:19:10;101432.69;;;8.54;100.00
76424;BME280;65257;52.104;4.268;2023-04-06T07:21:39;101433.47;;;8.69;100.00
76424;BME280;65257;52.104;4.268;2023-04-06T07:24:05;101439.53;;;8.87;100.00
76424;BME280;65257;52.104;4.268;2023-04-06T07:26:33;101433.63;;;8.88;100.00
76424;BME280;65257;52.104;4.268;2023-04-06T07:29:03;101428.91;;;8.96;100.00
76424;BME280;65257;52.104;4.268;2023-04-06T07:31:32;101430.44;;;8.92;100.00
76424;BME280;65257;52.104;4.268;2023-04-06T07:33:57;101426.44;;;8.97;100.00
76424;BME280;65257;52.104;4.268;2023-04-06T07:36:25;101427.38;;;8.99;100.00
76424;BME280;65257;52.104;4.268;2023-04-06T07:38:51;101424.53;;;8.93;100.00
76424;BME280;65257;52.104;4.268;2023-04-06T07:41:16;101421.50;;;9.00;100.00
76424;BME280;65257;52.104;4.268;2023-04-06T07:43:42;101423.56;;;8.91;100.00
76424;BME280;65257;52.104;4.268;2023-04-06T07:46:07;101428.91;;;8.96;100.00
76424;BME280;65257;52.104;4.268;2023-04-06T07:48:33;101419.56;;;8.96;100.00
76424;BME280;65257;52.104;4.268;2023-04-06T07:51:04;101422.59;;;8.89;100.00
76424;BME280;65257;52.104;4.268;2023-04-06T07:53:30;101420.03;;;9.05;100.00
76424;BME280;65257;52.104;4.268;2023-04-06T07:55:59;101408.53;;;9.13;100.00
76424;BME280;65257;52.104;4.268;2023-04-06T07:58:30;101425.47;;;9.11;100.00
76424;BME280;65257;52.104;4.268;2023-04-06T08:01:03;101423.81;;;8.96;100.00
76424;BME280;65257;52.104;4.268;2023-04-06T08:03:29;101420.75;;;9.03;100.00
76424;BME280;65257;52.104;4.268;2023-04-06T08:05:55;101416.81;;;8.75;100.00
76424;BME280;65257;52.104;4.268;2023-04-06T08:08:21;101420.38;;;8.79;100.00
76424;BME280;65257;52.104;4.268;2023-04-06T08:10:49;101423.50;;;8.90;100.00
76424;BME280;65257;52.104;4.268;2023-04-06T08:13:17;101423.09;;;8.82;100.00
76424;BME280;65257;52.104;4.268;2023-04-06T08:15:43;101425.66;;;8.82;100.00
76424;BME280;65257;52.104;4.268;2023-04-06T08:18:09;101432.19;;;8.77;100.00
76424;BME280;65257;52.104;4.268;2023-04-06T08:21:02;101423.75;;;8.78;100.00
76424;BME280;65257;52.104;4.268;2023-04-06T08:23:27;101435.78;;;8.64;100.00
76424;BME280;65257;52.104;4.268;2023-04-06T08:26:00;101422.38;;;8.68;100.00
76424;BME280;65257;52.104;4.268;2023-04-06T08:28:39;101427.59;;;8.70;100.00
76424;BME280;65257;52.104;4.268;2023-04-06T08:31:05;101426.59;;;8.68;100.00
76424;BME280;65257;52.104;4.268;2023-04-06T08:33:35;101436.50;;;8.62;100.00
76424;BME280;65257;52.104;4.268;2023-04-06T08:36:30;101429.94;;;8.35;100.00
76424;BME280;65257;52.104;4.268;2023-04-06T08:38:56;101430.69;;;8.17;100.00
76424;BME280;65257;52.104;4.268;2023-04-06T08:41:26;101408.84;;;8.06;100.00
76424;BME280;65257;52.104;4.268;2023-04-06T08:44:05;101413.66;;;8.16;100.00
76424;BME280;65257;52.104;4.268;2023-04-06T08:46:31;101424.47;;;8.12;100.00
76424;BME280;65257;52.104;4.268;2023-04-06T08:48:58;101420.31;;;8.14;100.00
76424;BME280;65257;52.104;4.268;2023-04-06T08:51:29;101414.91;;;8.08;100.00
76424;BME280;65257;52.104;4.268;2023-04-06T08:53:59;101423.34;;;8.07;100.00
76424;BME280;65257;52.104;4.268;2023-04-06T08:56:32;101411.13;;;8.02;100.00
76424;BME280;65257;52.104;4.268;2023-04-06T08:58:59;101418.47;;;7.96;100.00
76424;BME280;65257;52.104;4.268;2023-04-06T09:01:29;101416.34;;;7.89;100.00
76424;BME280;65257;52.104;4.268;2023-04-06T09:03:59;101436.66;;;7.87;100.00
76424;BME280;65257;52.104;4.268;2023-04-06T09:06:29;101412.63;;;7.82;100.00
76424;BME280;65257;52.104;4.268;2023-04-06T09:09:00;101413.50;;;7.83;100.00
76424;BME280;65257;52.104;4.268;2023-04-06T09:11:25;101403.38;;;7.84;100.00
76424;BME280;65257;52.104;4.268;2023-04-06T09:13:54;101414.81;;;7.76;100.00
76424;BME280;65257;52.104;4.268;2023-04-06T09:16:20;101431.97;;;7.64;100.00
76424;BME280;65257;52.104;4.268;2023-04-06T09:18:47;101430.91;;;7.61;100.00
76424;BME280;65257;52.104;4.268;2023-04-06T09:21:16;101420.22;;;7.51;100.00
76424;BME280;65257;52.104;4.268;2023-04-06T09:23:42;101410.09;;;7.53;100.00
76424;BME280;65257;52.104;4.268;2023-04-06T09:26:11;101406.16;;;7.58;100.00
76424;BME280;65257;52.104;4.268;2023-04-06T09:29:07;101421.59;;;7.61;100.00
76424;BME280;65257;52.104;4.268;2023-04-06T09:31:32;101402.72;;;7.57;100.00
76424;BME280;65257;52.104;4.268;2023-04-06T09:33:58;101401.88;;;7.57;100.00
76424;BME280;65257;52.104;4.268;2023-04-06T09:36:35;101402.28;;;7.50;100.00
76424;BME280;65257;52.104;4.268;2023-04-06T09:39:05;101412.19;;;7.60;100.00
76424;BME280;65257;52.104;4.268;2023-04-06T09:41:35;101405.53;;;7.62;100.00
76424;BME280;65257;52.104;4.268;2023-04-06T09:44:08;101390.59;;;7.68;100.00
76424;BME280;65257;52.104;4.268;2023-04-06T09:46:41;101392.81;;;7.62;100.00
76424;BME280;65257;52.104;4.268;2023-04-06T09:49:08;101396.59;;;7.54;100.00
76424;BME280;65257;52.104;4.268;2023-04-06T09:52:03;101390.28;;;7.62;100.00
76424;BME280;65257;52.104;4.268;2023-04-06T09:54:32;101390.16;;;7.61;100.00
76424;BME280;65257;52.104;4.268;2023-04-06T09:57:07;101388.69;;;7.64;100.00
76424;BME280;65257;52.104;4.268;2023-04-06T10:00:04;101379.78;;;7.72;100.00
76424;BME280;65257;52.104;4.268;2023-04-06T10:08:00;101380.25;;;7.65;100.00
76424;BME280;65257;52.104;4.268;2023-04-06T10:10:28;101371.97;;;7.69;100.00
76424;BME280;65257;52.104;4.268;2023-04-06T10:12:54;101369.69;;;7.74;100.00
76424;BME280;65257;52.104;4.268;2023-04-06T10:15:21;101372.16;;;7.72;100.00
76424;BME280;65257;52.104;4.268;2023-04-06T10:17:47;101362.22;;;7.77;100.00
76424;BME280;65257;52.104;4.268;2023-04-06T10:20:21;101364.56;;;7.88;100.00
76424;BME280;65257;52.104;4.268;2023-04-06T10:25:31;101361.19;;;7.89;100.00
76424;BME280;65257;52.104;4.268;2023-04-06T10:28:19;101369.97;;;7.94;100.00
76424;BME280;65257;52.104;4.268;2023-04-06T10:30:45;101369.97;;;7.94;100.00
76424;BME280;65257;52.104;4.268;2023-04-06T10:33:20;101358.03;;;7.93;100.00
76424;BME280;65257;52.104;4.268;2023-04-06T10:35:48;101346.56;;;7.85;100.00
76424;BME280;65257;52.104;4.268;2023-04-06T10:38:17;101341.63;;;7.88;100.00
76424;BME280;65257;52.104;4.268;2023-04-06T10:40:47;101352.06;;;7.93;100.00
76424;BME280;65257;52.104;4.268;2023-04-06T10:43:21;101352.78;;;7.90;100.00
76424;BME280;65257;52.104;4.268;2023-04-06T10:46:06;101359.00;;;7.95;100.00
76424;BME280;65257;52.104;4.268;2023-04-06T10:48:43;101341.47;;;7.85;100.00
76424;BME280;65257;52.104;4.268;2023-04-06T10:51:17;101342.88;;;7.96;100.00
76424;BME280;65257;52.104;4.268;2023-04-06T10:53:45;101341.63;;;7.88;100.00
76424;BME280;65257;52.104;4.268;2023-04-06T10:56:13;101336.84;;;7.94;100.00
76424;BME280;65257;52.104;4.268;2023-04-06T10:58:51;101332.06;;;7.84;100.00
76424;BME280;65257;52.104;4.268;2023-04-06T11:01:19;101333.81;;;7.85;100.00
76424;BME280;65257;52.104;4.268;2023-04-06T11:03:50;101342.59;;;7.90;100.00
76424;BME280;65257;52.104;4.268;2023-04-06T11:06:24;101347.69;;;7.90;100.00
76424;BME280;65257;52.104;4.268;2023-04-06T11:08:51;101327.38;;;7.92;100.00
76424;BME280;65257;52.104;4.268;2023-04-06T11:11:19;101326.88;;;7.99;100.00
76424;BME280;65257;52.104;4.268;2023-04-06T11:13:46;101324.28;;;7.97;100.00
76424;BME280;65257;52.104;4.268;2023-04-06T11:16:18;101331.13;;;7.98;100.00
76424;BME280;65257;52.104;4.268;2023-04-06T11:18:55;101330.47;;;7.86;100.00
76424;BME280;65257;52.104;4.268;2023-04-06T11:21:40;101323.94;;;7.91;100.00
76424;BME280;65257;52.104;4.268;2023-04-06T11:24:23;101322.50;;;7.96;100.00
76424;BME280;65257;52.104;4.268;2023-04-06T11:26:58;101318.28;;;7.97;100.00
76424;BME280;65257;52.104;4.268;2023-04-06T11:29:29;101321.50;;;7.93;100.00
76424;BME280;65257;52.104;4.268;2023-04-06T11:31:59;101312.31;;;7.96;100.00
76424;BME280;65257;52.104;4.268;2023-04-06T11:34:25;101316.16;;;8.04;100.00
76424;BME280;65257;52.104;4.268;2023-04-06T11:36:58;101314.56;;;8.06;100.00
76424;BME280;65257;52.104;4.268;2023-04-06T11:39:25;101319.66;;;8.06;100.00
76424;BME280;65257;52.104;4.268;2023-04-06T11:41:59;101321.97;;;8.02;100.00
76424;BME280;65257;52.104;4.268;2023-04-06T11:44:44;101309.16;;;8.00;100.00
76424;BME280;65257;52.104;4.268;2023-04-06T11:47:14;101319.66;;;8.06;100.00
76424;BME280;65257;52.104;4.268;2023-04-06T11:49:43;101314.41;;;8.03;100.00
76424;BME280;65257;52.104;4.268;2023-04-06T11:52:28;101301.00;;;7.91;100.00
76424;BME280;65257;52.104;4.268;2023-04-06T11:54:57;101300.63;;;8.00;100.00
76424;BME280;65257;52.104;4.268;2023-04-06T11:57:26;101299.13;;;8.03;100.00
76424;BME280;65257;52.104;4.268;2023-04-06T11:59:53;101294.03;;;8.03;100.00
76424;BME280;65257;52.104;4.268;2023-04-06T12:02:21;101308.28;;;8.00;100.00
76424;BME280;65257;52.104;4.268;2023-04-06T12:04:47;101302.13;;;7.96;100.00
76424;BME280;65257;52.104;4.268;2023-04-06T12:07:12;101292.19;;;8.01;100.00
76424;BME280;65257;52.104;4.268;2023-04-06T12:09:47;101286.28;;;8.02;100.00
76424;BME280;65257;52.104;4.268;2023-04-06T12:12:18;101287.88;;;8.00;100.00
76424;BME280;65257;52.104;4.268;2023-04-06T12:14:44;101284.84;;;8.07;100.00
76424;BME280;65257;52.104;4.268;2023-04-06T12:17:13;101278.03;;;8.06;100.00
76424;BME280;65257;52.104;4.268;2023-04-06T12:19:41;101301.69;;;8.03;100.00
76424;BME280;65257;52.104;4.268;2023-04-06T12:22:09;101273.22;;;8.12;100.00
76424;BME280;65257;52.104;4.268;2023-04-06T12:24:35;101280.66;;;8.07;100.00
76424;BME280;65257;52.104;4.268;2023-04-06T12:27:00;101297.69;;;8.08;100.00
76424;BME280;65257;52.104;4.268;2023-04-06T12:29:26;101274.44;;;8.02;100.00
76424;BME280;65257;52.104;4.268;2023-04-06T12:31:52;101272.50;;;8.14;100.00
76424;BME280;65257;52.104;4.268;2023-04-06T12:34:23;101262.63;;;8.20;100.00
76424;BME280;65257;52.104;4.268;2023-04-06T12:36:51;101279.22;;;8.12;100.00
76424;BME280;65257;52.104;4.268;2023-04-06T12:39:18;101272.94;;;8.06;100.00
76424;BME280;65257;52.104;4.268;2023-04-06T12:41:44;101266.78;;;8.02;100.00
76424;BME280;65257;52.104;4.268;2023-04-06T12:44:10;101263.59;;;8.06;100.00
76424;BME280;65257;52.104;4.268;2023-04-06T12:46:36;101263.28;;;8.00;100.00
76424;BME280;65257;52.104;4.268;2023-04-06T12:49:02;101269.88;;;7.97;100.00
76424;BME280;65257;52.104;4.268;2023-04-06T12:51:31;101291.81;;;7.93;100.00
76424;BME280;65257;52.104;4.268;2023-04-06T12:53:57;101262.97;;;7.94;100.00
76424;BME280;65257;52.104;4.268;2023-04-06T12:56:22;101259.47;;;7.92;100.00
76424;BME280;65257;52.104;4.268;2023-04-06T12:58:50;101268.88;;;7.93;100.00
76424;BME280;65257;52.104;4.268;2023-04-06T13:01:16;101268.22;;;7.97;100.00
76424;BME280;65257;52.104;4.268;2023-04-06T13:03:42;101251.50;;;8.02;100.00
76424;BME280;65257;52.104;4.268;2023-04-06T13:06:10;101248.16;;;8.03;100.00